Date,TemperatureHighF,TemperatureAvgF,TemperatureLowF,DewpointHighF,DewpointAvgF,DewpointLowF,HumidityHigh,HumidityAvg,HumidityLow,PressureMaxIn,PressureMinIn,WindSpeedMaxMPH,WindSpeedAvgMPH,GustSpeedMaxMPH,PrecipitationSumIn
2013-5-1,52.6,47.5,42.0,-99.9,-99.9,-99.9,0,0,100,30.31,30.20,4,0,0,0.00
2013-5-2,52.9,45.8,38.8,-99.9,-99.9,-99.9,0,0,100,30.29,30.10,3,0,0,0.00
2013-5-3,55.4,51.6,46.6,-99.9,-99.9,-99.9,0,0,100,30.10,29.79,5,0,0,0.00
2013-5-4,54.9,49.6,44.4,-99.9,-99.9,-99.9,0,0,100,29.97,29.77,6,0,0,0.00
2013-5-5,59.7,52.9,49.0,-99.9,-99.9,-99.9,0,0,100,30.07,29.95,3,0,0,0.00
2013-5-6,53.1,49.7,46.6,-99.9,-99.9,-99.9,0,0,100,30.07,30.03,3,0,0,0.00
2013-5-7,58.3,51.9,45.5,-99.9,-99.9,-99.9,0,0,100,30.06,29.75,2,0,0,0.00
2013-5-8,56.0,51.3,48.7,-99.9,-99.9,-99.9,0,0,100,29.75,29.32,5,1,0,0.00
2013-5-9,50.8,48.3,46.5,-99.9,-99.9,-99.9,0,0,100,29.50,29.17,8,1,0,0.00
2013-5-10,56.8,50.0,45.9,-99.9,-99.9,-99.9,0,0,100,29.69,29.45,5,0,0,0.00
2013-5-11,50.5,47.5,45.4,-99.9,-99.9,-99.9,0,0,100,29.88,29.58,7,1,0,0.00
2013-5-12,55.1,48.3,44.2,-99.9,-99.9,-99.9,0,0,100,29.89,29.71,4,0,0,0.00
2013-5-13,49.9,45.8,42.1,-99.9,-99.9,-99.9,0,0,100,29.74,29.60,6,1,0,0.00
2013-5-14,51.7,45.9,41.3,-99.9,-99.9,-99.9,0,0,100,29.60,29.40,4,0,0,0.00
2013-5-15,50.5,46.4,43.8,-99.9,-99.9,-99.9,0,0,100,29.43,29.36,5,1,0,0.00
2013-5-16,47.5,46.0,43.6,-99.9,-99.9,-99.9,0,0,100,29.63,29.50,15,9,0,0.00
2013-5-17,56.9,50.2,43.5,-99.9,-99.9,-99.9,0,0,100,29.90,29.61,13,7,0,0.00
2013-5-18,51.1,48.8,46.8,-99.9,-99.9,-99.9,0,0,100,29.88,29.69,14,7,0,0.00
2013-5-19,54.6,50.8,48.3,-99.9,-99.9,-99.9,0,0,100,30.04,29.77,9,3,0,0.00
2013-5-20,57.7,53.3,50.2,-99.9,-99.9,-99.9,0,0,100,30.08,30.00,22,11,0,0.00
2013-5-21,55.2,50.7,47.7,-99.9,-99.9,-99.9,0,0,100,30.18,29.95,20,12,0,0.00
2013-5-22,52.9,49.5,45.0,-99.9,-99.9,-99.9,0,0,100,30.22,30.12,25,14,0,0.00
2013-5-23,48.3,45.2,43.4,-99.9,-99.9,-99.9,0,0,100,30.12,29.99,28,18,0,0.00
2013-5-24,56.0,49.1,43.8,-99.9,-99.9,-99.9,0,0,100,30.22,29.96,22,13,0,0.00
2013-5-25,52.7,48.0,42.3,-99.9,-99.9,-99.9,0,0,100,30.24,30.15,18,9,0,0.00
2013-5-26,54.6,50.6,46.4,-99.9,-99.9,-99.9,0,0,100,30.15,29.76,21,11,0,0.00
2013-5-27,50.9,49.4,47.4,-99.9,-99.9,-99.9,0,0,100,29.76,29.41,28,18,0,0.00
2013-5-28,53.2,48.8,44.4,-99.9,-99.9,-99.9,0,0,100,29.71,29.47,13,6,0,0.00
2013-5-29,63.9,55.7,48.0,-99.9,-99.9,-99.9,0,0,100,29.96,29.71,16,10,0,0.00
2013-5-30,62.2,56.1,49.1,-99.9,-99.9,-99.9,0,0,100,30.12,29.93,16,11,0,0.00
2013-5-31,55.6,51.7,46.9,-99.9,-99.9,-99.9,0,0,100,30.27,30.11,12,7,0,0.00